x

New Dungeness - 17 Nm Ne Of Port Angeles, Wa (46088) Wave Buoy

12:20 - Sun 23rd Apr 2017 All times are PDT. -7 hours from GMT.

  • Sig Wave height 0.7ft
  • Average Period 3s
  • Wind
    7mph, 9mph gusts
  • Sea Temp 49°f
  • Aire Temp 50°f
  • Sea Pressure 1012.5mb
  • New Dungeness - 17 Nm Ne Of Port Angeles, Wa
  • New Dungeness - 17 Nm Ne Of Port Angeles, Wa

More Historic Weather Station data

Upgrade to MSW Pro to gain access to the past 30 days of data for over 8000 Wavebouys and Weather Stations around the globe.

Join Pro

Comparision Forecast

View Surf forecast
   
dom 04/23 12:20 0.7ft  -  3s 7 9 mph 1012.5mb 49f 50f
sáb 04/22 11:50 0.7ft  -  3s 9
mph
1012.5mb 49f 50f
11:20 0.7ft  -  3s 9 11 mph 1012.6mb 49f 50f
10:50 1ft 3s 3s 9
mph
1012.5mb 49f 50f
10:20 1ft 3s 3s 7 9 mph 1012.5mb 49f 50f
9:50 0.7ft  -  3s 4
mph
1012.3mb 49f 51f
9:20 0.7ft  -  3s 2 4 mph 1012.1mb 49f 51f
8:50 0.7ft  -  3s 4 7 mph 1011.9mb 49f 51f
8:20 0.7ft  -  3s 7 9 mph 1011.7mb 49f 51f
7:50 1ft 3s 3s 9
mph
1011.5mb 49f 51f
7:20 1ft 3s 3s 9 11 mph 1011mb 49f 51f
6:50 1.3ft 3s 3s 4 7 mph 1010.7mb 49f 52f
6:20 1.3ft 3s 3s 2
mph
1010.3mb 49f 51f
5:20 1.6ft 4s 3s 4 7 mph 1010mb 49f 51f
4:50 2.5ft 4s 3s 4 9 mph 1009.4mb 49f 52f
4:20 2.5ft 4s 4s 20 25 mph 1008.7mb 49f 53f
3:50 2.5ft 4s 4s 18 20 mph 1008.8mb 49f 53f
3:20 2.5ft 4s 3s 20 27 mph 1008.7mb 49f 53f
2:50 1.6ft 4s 3s 9 13 mph 1008.7mb 49f 52f
2:20 0.7ft  -  3s 13 16 mph 1008.1mb 49f 52f
1:50 0.7ft  -  3s 18 22 mph 1007.8mb 49f 52f
1:20 0.3ft  -  3s 7 9 mph 1008.1mb 49f 52f
12:50 0.3ft  -  3s 7 9 mph 1008mb 49f 51f
12:20 0.3ft  -  3s 7
mph
1008.9mb 49f 51f
11:50 0.3ft  -  3s 18 22 mph 1008.6mb 49f 52f
11:20 0.3ft  -  2s 9
mph
1006.8mb 49f 54f
10:50 0.7ft  -  3s 16 18 mph 1005.3mb 49f 53f
10:20 0.3ft  -  3s 16 18 mph 1005.7mb 49f 54f
9:50 0.3ft  -  2s 13 16 mph 1006.1mb 49f 53f
9:20 0.7ft  -  3s 9 11 mph 1006.4mb 49f 52f
8:50 0.7ft  -  3s 7 9 mph 1007mb 49f 52f
8:20 0.3ft  -  2s 9
mph
1006.7mb 49f 53f
7:50 0.3ft  -  3s 13 16 mph 1006.4mb 49f 53f
7:20 0.3ft  -  3s 13 16 mph 1007.1mb 49f 52f
6:50 0.3ft  -  4s 11 13 mph 1007.8mb 49f 52f
6:20 0.3ft  -  3s 11 13 mph 1008.3mb 49f 52f
5:20 0.3ft  -  3s 11 13 mph 1009.4mb 49f 52f
4:50 0.3ft  -  3s 11 13 mph 1009.8mb 49f 52f
4:20 0.3ft  -  3s 13
mph
1010.4mb 49f 52f
3:50 0.3ft  -  3s 13 16 mph 1010.8mb 49f 52f
3:20 0.3ft  -  3s 13 16 mph 1011.2mb 50f 52f
2:50 0.3ft  -  3s 11 13 mph 1011.8mb 50f 52f
2:20 0.3ft  -  3s 11 13 mph 1012.4mb 50f 51f
1:50 0.3ft  -  3s 9 13 mph 1013.2mb 50f 51f
1:20 0.3ft  -  3s 7
mph
1013.8mb 50f 51f
12:50 0.3ft  -  3s 9
mph
1014.1mb 50f 51f
12:20 0.3ft  -  4s 9
mph
1014.5mb 50f 51f
vie 04/21 11:50 0.3ft  -  4s 9
mph
1015.2mb 50f 51f
11:20  -   -  4s 7 9 mph 1015.7mb 50f 51f
10:50 0.3ft  -  4s 9
mph
1016.3mb 50f 52f
10:20 0.3ft  -  3s 7 9 mph 1016.9mb 50f 52f
9:50 0.3ft  -  3s 7
mph
1017.2mb 50f 53f
9:20 0.3ft  -  3s 9
mph
1017.5mb 50f 53f
8:50 0.3ft  -  3s 7
mph
1017.6mb 50f 53f
8:20 0.3ft  -  4s 11 13 mph 1017.9mb 50f 53f
7:50 0.3ft  -  4s 9 11 mph 1018.5mb 51f 52f
7:20 0.3ft  -  4s 4 7 mph 1018.7mb 51f 53f
6:50 0.3ft  -  4s 9
mph
1019.3mb 51f 53f
6:20 0.3ft  -  3s 7 9 mph 1019.6mb 51f 53f
5:20 0.3ft  -  4s 9 11 mph 1020.9mb 51f 52f
4:50 0.3ft  -  4s 9
mph
1021.5mb 51f 52f
4:20 0.3ft  -  4s 9 11 mph 1022mb 51f 52f
3:50 0.3ft  -  5s 9 11 mph 1022.7mb 51f 52f
3:20 0.3ft  -  4s 9
mph
1023.5mb 51f 51f
2:50 0.3ft  -  4s 7 9 mph 1024.4mb 51f 51f
2:20 0.3ft  -  4s 7 9 mph 1024.9mb 50f 50f
1:50 0.3ft  -  5s 7 9 mph 1025.5mb 50f 50f
1:20 0.3ft  -  5s 7
mph
1026mb 50f 49f
12:50 0.3ft  -  4s 4 7 mph 1026.5mb 50f 49f
12:20 0.3ft  -  4s 2
mph
1027.2mb 50f 49f
11:50 0.7ft  -  4s 4 7 mph 1027.3mb 49f 49f
11:20 0.3ft  -  5s 9
mph
1027.8mb 49f 48f
10:50 0.3ft  -  4s 9 11 mph 1028.1mb 49f 48f
10:20 0.3ft  -  4s 7 9 mph 1028.6mb 49f 48f
9:50 0.3ft  -  4s 7
mph
1028.8mb 49f 49f
9:20 0.3ft  -  4s 4
mph
1028.8mb 49f 49f
8:50 0.3ft  -  4s 7
mph
1029mb 49f 49f
8:20 0.7ft  -  4s 7 9 mph 1029.1mb 48f 49f
7:50 0.3ft  -  4s 9
mph
1029.4mb 48f 48f
7:20 0.3ft  -  4s 7 9 mph 1029.4mb 48f 49f
6:20 0.3ft  -  4s 7
mph
1029.3mb 48f 48f
5:50 0.3ft  -  3s 4 7 mph 1029.2mb 48f 49f
5:20 0.7ft  -  4s 4 7 mph 1029mb 48f 49f
4:50 0.7ft  -  4s 7
mph
1028.9mb 48f 49f
4:20 0.7ft  -  4s 9
mph
1028.9mb 48f 49f
3:50 0.7ft  -  3s 7 9 mph 1029.1mb 49f 49f
3:20 0.7ft  -  4s 7 9 mph 1029mb 49f 49f
2:50 0.7ft  -  4s 9
mph
1029mb 49f 49f
2:20 0.3ft  -  3s 9 11 mph 1029mb 49f 49f
1:50 0.7ft  -  3s 11
mph
1028.8mb 49f 49f
1:20 0.7ft  -  3s 4 7 mph 1028.9mb 49f 49f
12:50 0.7ft  -  3s 9
mph
1028.7mb 49f 50f
12:20 0.7ft  -  3s 11 13 mph 1028.5mb 49f 50f
jue 04/20 11:50 0.7ft  -  3s 11 13 mph 1028.5mb 49f 50f
11:20 1ft 2s 2s 13 16 mph 1028.2mb 49f 50f
10:50 0.7ft  -  3s 13 16 mph 1027.7mb 48f 50f
10:20 1ft 2s 3s 16 18 mph 1027.5mb 48f 49f
9:50 1ft 2s 3s 16 20 mph 1027.2mb 48f 50f
9:20 1ft 3s 3s 13 16 mph 1026.9mb 49f 50f
8:50 1.3ft 3s 3s 11 13 mph 1026.6mb 49f 50f
8:20 1ft 3s 3s 13
mph
1026.2mb 49f 50f
7:50 1ft 2s 3s 11 13 mph 1025.9mb 49f 50f
7:20 1ft 3s 3s 16 18 mph 1025.6mb 49f 50f
6:50 0.7ft  -  3s 16 18 mph 1025.5mb 50f 50f
6:20 0.3ft  -  3s 13 16 mph 1025.3mb 50f 50f
5:50 0.3ft  -  5s 13 16 mph 1025mb 50f 51f
5:20 0.3ft  -  5s 9 11 mph 1024.8mb 51f 52f
4:50 0.3ft  -  4s 4 7 mph 1024.6mb 51f 52f
4:20 0.3ft  -  6s 4
mph
1024.2mb 51f 52f
3:50 0.3ft  -  5s 4
mph
1023.8mb 51f 51f
3:20 0.7ft  -  5s 7
mph
1023.6mb 51f 51f
2:50 0.7ft  -  5s 4 7 mph 1023.4mb 51f 51f
2:20 0.3ft  -  5s 4
mph
1023.1mb 51f 50f
1:50 0.3ft  -  5s 7
mph
1023mb 51f 50f
1:20 0.3ft  -  5s 4 7 mph 1023mb 51f 50f
12:50 0.3ft  -  4s 2 4 mph 1023mb 50f 50f
12:20 0.3ft  -  4s 4
mph
1022.8mb 50f 49f
11:50 0.3ft  -  4s 4
mph
1022.6mb 49f 49f
11:20 0.3ft  -  4s 2
mph
1022.3mb 49f 49f
10:50 0.7ft  -  4s 2
mph
1022mb 49f 49f
10:20 0.3ft  -  4s 4
mph
1021.5mb 49f 49f
9:50 0.3ft  -  3s 7 9 mph 1021.2mb 49f 49f
9:20 0.3ft  -  4s 7
mph
1020.7mb 49f 49f
8:50 0.3ft  -  3s 2 4 mph 1020.3mb 48f 49f
8:20 0.7ft  -  4s 2
mph
1020mb 48f 49f
7:50 0.7ft  -  3s 2
mph
1019.8mb 48f 48f
7:20 0.7ft  -  3s 4
mph
1019.6mb 48f 48f
6:50 0.7ft  -  3s 4
mph
1019.3mb 48f 48f
6:20 0.7ft  -  4s 4
mph
1019mb 48f 48f
5:50 1ft 11s 4s 7
mph
1018.6mb 48f 48f
5:20 0.7ft  -  3s 7
mph
1018.4mb 48f 48f
4:50 0.7ft  -  3s 4
mph
1018.2mb 48f 48f
4:20 0.7ft  -  3s 4 7 mph 1018.1mb 48f 48f
3:50 0.7ft  -  3s 7 9 mph 1017.9mb 48f 48f
3:20 0.7ft  -  3s 4 7 mph 1017.7mb 48f 48f
2:50 0.7ft  -  3s 7 9 mph 1017.5mb 48f 48f
2:20 0.3ft  -  3s 7 9 mph 1017.3mb 48f 48f
1:50 0.3ft  -  3s 4 7 mph 1017.3mb 48f 49f
1:20 0.7ft  -  3s 7 9 mph 1017.2mb 48f 49f
12:50 0.7ft  -  3s 7 9 mph 1016.9mb 48f 49f
12:20 0.7ft  -  3s 7 9 mph 1016.6mb 48f 49f
mié 04/19 11:50 0.7ft  -  3s  -  mph 1016.3mb 48f 49f
11:20 0.7ft  -  3s 2 4 mph 1016mb 48f 50f
10:50 0.7ft  -  3s 4
mph
1015.9mb 48f 50f
10:20 0.7ft  -  3s 7 9 mph 1015.7mb 48f 50f
9:50 1ft 3s 3s 9 11 mph 1015.3mb 48f 50f
9:20 1ft 3s 3s 11 13 mph 1014.9mb 48f 50f
8:50 1ft 4s 3s 9 11 mph 1014.5mb 48f 50f
8:20 1.3ft 4s 3s 11
mph
1014.2mb 48f 49f
7:50 1.6ft 4s 4s 7 9 mph 1014.2mb 48f 49f
7:20 2ft 4s 4s 7 9 mph 1014.3mb 48f 49f
6:50 2.5ft 4s 4s 9 11 mph 1014.6mb 48f 51f
6:20 3ft 4s 4s 18 22 mph 1014.6mb 48f 52f
5:50 3.5ft 4s 4s 20 25 mph 1014.7mb 48f 52f
5:20 2.5ft 4s 4s 22 27 mph 1014.8mb 48f 52f
4:50 2.5ft 4s 4s 20 25 mph 1014.8mb 48f 52f
4:20 2.5ft 4s 4s 20 22 mph 1014.9mb 48f 52f